Lake Suzy, Florida
Current Conditions -  °F | °C
As of 10:53 AM on Monday 22 Dec 2014 (Local Time) from KPGD Reporting Station
Scattered Clouds Scattered Clouds  
Wind Chill: 78°   Ceiling: Unl
Heat Index: 80°   Visibility: 10mi
Dew Point: 68°   Wind: 14mph
Humidity: 71%   Direction: 190°S
Pressure: 30.03"   Gusts: NA
Location:  27.0717°N, 81.9802°W
Report Text: KPGD 221553Z 19012KT 10SM SCT100 26/20 A3003 RMK AO2 SLP170 T02560200
Loading
Personal Weather Stations






























Interactive Weather Map New forecast layout! Learn more

10-Day Weather Forecast

Advertisements
Track Severe Weather on mobile